Time;durP1;ratioP1;P1;durP2;ratioP2;P2;SDS_P1;SDS_P2;PMS_P1;PMS_P2;Temp;Humidity;BMP_temperature;BMP_pressure;BME280_temperature;BME280_humidity;BME280_pressure;Samples;Min_cycle;Max_cycle;Signal;HPM_P1;HPM_P2
2024/02/15 00:00:29;;;;;;;3.900001;2.4;;;;;;;11.26;80.6875;95789.61;;;;
2024/02/15 00:01:30;;;;;;;3.900001;2.4;;;;;;;11.26;80.6875;95789.61;;;;
2024/02/15 00:02:30;;;;;;;3.900001;2.4;;;;;;;11.26;80.6875;95789.61;;;;
2024/02/15 00:03:31;;;;;;;3.900001;2.4;;;;;;;11.26;80.6875;95789.61;;;;
2024/02/15 00:04:33;;;;;;;3.900001;2.4;;;;;;;11.26;80.6875;95789.61;;;;
2024/02/15 00:05:36;;;;;;;3.900001;2.4;;;;;;;11.26;80.6875;95789.61;;;;
2024/02/15 00:06:36;;;;;;;3.900001;2.4;;;;;;;11.26;80.6875;95789.61;;;;
2024/02/15 00:07:37;;;;;;;3.900001;2.4;;;;;;;11.26;80.6875;95789.61;;;;
2024/02/15 00:08:38;;;;;;;3.900001;2.4;;;;;;;11.26;80.6875;95789.61;;;;
2024/02/15 00:09:39;;;;;;;3.900001;2.4;;;;;;;11.26;80.6875;95789.61;;;;
2024/02/15 00:10:39;;;;;;;2.5;2.3;;;;;;;10.78;84.19531;95798.3;;;;
2024/02/15 00:11:40;;;;;;;2.5;2.3;;;;;;;10.78;84.19531;95798.3;;;;
2024/02/15 00:12:40;;;;;;;2.5;2.3;;;;;;;10.78;84.19531;95798.3;;;;
2024/02/15 00:13:41;;;;;;;2.5;2.3;;;;;;;10.78;84.19531;95798.3;;;;
2024/02/15 00:14:42;;;;;;;2.5;2.3;;;;;;;10.78;84.19531;95798.3;;;;
2024/02/15 00:15:43;;;;;;;2.5;2.3;;;;;;;10.78;84.19531;95798.3;;;;
2024/02/15 00:16:43;;;;;;;2.5;2.3;;;;;;;10.78;84.19531;95798.3;;;;
2024/02/15 00:17:44;;;;;;;2.5;2.3;;;;;;;10.78;84.19531;95798.3;;;;
2024/02/15 00:18:44;;;;;;;2.5;2.3;;;;;;;10.78;84.19531;95798.3;;;;
2024/02/15 00:19:46;;;;;;;2.5;2.3;;;;;;;10.78;84.19531;95798.3;;;;
2024/02/15 00:20:47;;;;;;;2.5;2.3;;;;;;;10.78;84.19531;95798.3;;;;
2024/02/15 00:21:47;;;;;;;3.35;2.5;;;;;;;10.77;84.41016;95783.44;;;;
2024/02/15 00:22:49;;;;;;;3.35;2.5;;;;;;;10.77;84.41016;95783.44;;;;
2024/02/15 00:23:50;;;;;;;3.35;2.5;;;;;;;10.77;84.41016;95783.44;;;;
2024/02/15 00:24:50;;;;;;;3.35;2.5;;;;;;;10.77;84.41016;95783.44;;;;
2024/02/15 00:25:51;;;;;;;3.35;2.5;;;;;;;10.77;84.41016;95783.44;;;;
2024/02/15 00:26:51;;;;;;;3.35;2.5;;;;;;;10.77;84.41016;95783.44;;;;
2024/02/15 00:27:52;;;;;;;3.35;2.5;;;;;;;10.77;84.41016;95783.44;;;;
2024/02/15 00:28:52;;;;;;;3.35;2.5;;;;;;;10.77;84.41016;95783.44;;;;
2024/02/15 00:29:53;;;;;;;3.35;2.5;;;;;;;10.77;84.41016;95783.44;;;;
2024/02/15 00:30:53;;;;;;;3.35;2.5;;;;;;;10.77;84.41016;95783.44;;;;
2024/02/15 00:31:54;;;;;;;3.35;2.5;;;;;;;10.77;84.41016;95783.44;;;;
2024/02/15 00:32:55;;;;;;;3.35;2.5;;;;;;;10.77;84.41016;95783.44;;;;
2024/02/15 00:33:55;;;;;;;3.35;2.5;;;;;;;10.77;84.41016;95783.44;;;;
2024/02/15 00:34:56;;;;;;;3.35;2.5;;;;;;;10.77;84.41016;95783.44;;;;
2024/02/15 00:35:57;;;;;;;3.35;2.5;;;;;;;10.77;84.41016;95783.44;;;;
2024/02/15 00:36:57;;;;;;;3.35;2.5;;;;;;;10.77;84.41016;95783.44;;;;
2024/02/15 00:37:58;;;;;;;3.35;2.5;;;;;;;10.77;84.41016;95783.44;;;;
2024/02/15 00:38:58;;;;;;;3.35;2.5;;;;;;;10.77;84.41016;95783.44;;;;
2024/02/15 00:39:59;;;;;;;3.35;2.5;;;;;;;10.77;84.41016;95783.44;;;;
2024/02/15 00:40:59;;;;;;;3.35;2.5;;;;;;;10.77;84.41016;95783.44;;;;
2024/02/15 00:42:00;;;;;;;3.35;2.5;;;;;;;10.77;84.41016;95783.44;;;;
2024/02/15 00:43:00;;;;;;;3.35;2.5;;;;;;;10.77;84.41016;95783.44;;;;
2024/02/15 00:44:01;;;;;;;3.35;2.5;;;;;;;10.77;84.41016;95783.44;;;;
2024/02/15 00:45:01;;;;;;;3.35;2.5;;;;;;;10.77;84.41016;95783.44;;;;
2024/02/15 00:46:02;;;;;;;3.35;2.5;;;;;;;10.77;84.41016;95783.44;;;;
2024/02/15 00:47:03;;;;;;;3.35;2.5;;;;;;;10.77;84.41016;95783.44;;;;
2024/02/15 00:48:06;;;;;;;3.35;2.5;;;;;;;10.77;84.41016;95783.44;;;;
2024/02/15 00:49:07;;;;;;;3.35;2.5;;;;;;;10.77;84.41016;95783.44;;;;
2024/02/15 00:50:07;;;;;;;3.35;2.5;;;;;;;10.77;84.41016;95783.44;;;;
2024/02/15 00:51:08;;;;;;;3.35;2.5;;;;;;;10.77;84.41016;95783.44;;;;
2024/02/15 00:52:09;;;;;;;3.35;2.5;;;;;;;10.77;84.41016;95783.44;;;;
2024/02/15 00:53:09;;;;;;;3.35;2.5;;;;;;;10.77;84.41016;95783.44;;;;
2024/02/15 00:54:10;;;;;;;4.45;2.5;;;;;;;10.75;83.99707;95780.58;;;;
2024/02/15 00:55:10;;;;;;;4.45;2.5;;;;;;;10.75;83.99707;95780.58;;;;
2024/02/15 00:56:11;;;;;;;4.45;2.5;;;;;;;10.75;83.99707;95780.58;;;;
2024/02/15 00:57:12;;;;;;;4.45;2.5;;;;;;;10.75;83.99707;95780.58;;;;
2024/02/15 00:58:12;;;;;;;4.45;2.5;;;;;;;10.75;83.99707;95780.58;;;;
2024/02/15 00:59:13;;;;;;;4.45;2.5;;;;;;;10.75;83.99707;95780.58;;;;
2024/02/15 01:00:13;;;;;;;4.45;2.5;;;;;;;10.75;83.99707;95780.58;;;;
2024/02/15 01:01:15;;;;;;;4.45;2.5;;;;;;;10.75;83.99707;95780.58;;;;
2024/02/15 01:02:15;;;;;;;4.45;2.5;;;;;;;10.75;83.99707;95780.58;;;;
2024/02/15 01:03:16;;;;;;;4.45;2.5;;;;;;;10.75;83.99707;95780.58;;;;
2024/02/15 01:04:16;;;;;;;2.5;2.3;;;;;;;10.6;84.62207;95784.42;;;;
2024/02/15 01:05:18;;;;;;;2.5;2.3;;;;;;;10.6;84.62207;95784.42;;;;
2024/02/15 01:06:19;;;;;;;2.5;2.3;;;;;;;10.6;84.62207;95784.42;;;;
2024/02/15 01:07:19;;;;;;;2.5;2.3;;;;;;;10.6;84.62207;95784.42;;;;
2024/02/15 01:08:20;;;;;;;2.5;2.3;;;;;;;10.6;84.62207;95784.42;;;;
2024/02/15 01:09:20;;;;;;;2.5;2.3;;;;;;;10.6;84.62207;95784.42;;;;
2024/02/15 01:10:22;;;;;;;2.5;2.3;;;;;;;10.6;84.62207;95784.42;;;;
2024/02/15 01:11:23;;;;;;;2.5;2.3;;;;;;;10.6;84.62207;95784.42;;;;
2024/02/15 01:12:24;;;;;;;2.5;2.3;;;;;;;10.6;84.62207;95784.42;;;;
2024/02/15 01:13:25;;;;;;;2.5;2.3;;;;;;;10.6;84.62207;95784.42;;;;
2024/02/15 01:14:30;;;;;;;2.5;2.3;;;;;;;10.6;84.62207;95784.42;;;;
2024/02/15 01:15:30;;;;;;;2.35;2.15;;;;;;;10.6;83.99121;95781.66;;;;
2024/02/15 01:16:31;;;;;;;2.35;2.15;;;;;;;10.6;83.99121;95781.66;;;;
2024/02/15 01:17:31;;;;;;;2.35;2.15;;;;;;;10.6;83.99121;95781.66;;;;
2024/02/15 01:18:32;;;;;;;2.35;2.15;;;;;;;10.6;83.99121;95781.66;;;;
2024/02/15 01:19:32;;;;;;;2.35;2.15;;;;;;;10.6;83.99121;95781.66;;;;
2024/02/15 01:20:33;;;;;;;2.35;2.15;;;;;;;10.6;83.99121;95781.66;;;;
2024/02/15 01:21:33;;;;;;;2.35;2.15;;;;;;;10.6;83.99121;95781.66;;;;
2024/02/15 01:22:34;;;;;;;2.35;2.15;;;;;;;10.6;83.99121;95781.66;;;;
2024/02/15 01:23:36;;;;;;;2.35;2.15;;;;;;;10.6;83.99121;95781.66;;;;
2024/02/15 01:24:37;;;;;;;2.35;2.15;;;;;;;10.6;83.99121;95781.66;;;;
2024/02/15 01:25:39;;;;;;;2.35;2.15;;;;;;;10.6;83.99121;95781.66;;;;
2024/02/15 01:26:40;;;;;;;2.35;2.15;;;;;;;10.6;83.99121;95781.66;;;;
2024/02/15 01:27:40;;;;;;;2.35;2.15;;;;;;;10.6;83.99121;95781.66;;;;
2024/02/15 01:28:43;;;;;;;2.35;2.15;;;;;;;10.6;83.99121;95781.66;;;;
2024/02/15 01:29:43;;;;;;;2.35;2.15;;;;;;;10.6;83.99121;95781.66;;;;
2024/02/15 01:30:46;;;;;;;2.35;2.15;;;;;;;10.6;83.99121;95781.66;;;;
2024/02/15 01:31:46;;;;;;;2.35;2.15;;;;;;;10.6;83.99121;95781.66;;;;
2024/02/15 01:32:47;;;;;;;2.35;2.15;;;;;;;10.6;83.99121;95781.66;;;;
2024/02/15 01:33:47;;;;;;;2.35;2.15;;;;;;;10.6;83.99121;95781.66;;;;
2024/02/15 01:34:51;;;;;;;2.35;2.15;;;;;;;10.6;83.99121;95781.66;;;;
2024/02/15 01:35:51;;;;;;;2.35;2.15;;;;;;;10.6;83.99121;95781.66;;;;
2024/02/15 01:36:52;;;;;;;2.95;2.25;;;;;;;10.13;83.28809;95778.67;;;;
2024/02/15 01:37:52;;;;;;;2.95;2.25;;;;;;;10.13;83.28809;95778.67;;;;
2024/02/15 01:38:53;;;;;;;2.95;2.25;;;;;;;10.13;83.28809;95778.67;;;;
2024/02/15 01:39:53;;;;;;;2.95;2.25;;;;;;;10.13;83.28809;95778.67;;;;
2024/02/15 01:40:54;;;;;;;2.95;2.25;;;;;;;10.13;83.28809;95778.67;;;;
2024/02/15 01:41:56;;;;;;;2.95;2.25;;;;;;;10.13;83.28809;95778.67;;;;
2024/02/15 01:42:58;;;;;;;2.95;2.25;;;;;;;10.13;83.28809;95778.67;;;;
2024/02/15 01:43:58;;;;;;;2.95;2.25;;;;;;;10.13;83.28809;95778.67;;;;
2024/02/15 01:44:59;;;;;;;2.95;2.25;;;;;;;10.13;83.28809;95778.67;;;;
2024/02/15 01:46:03;;;;;;;2.95;2.25;;;;;;;10.13;83.28809;95778.67;;;;
2024/02/15 01:47:09;;;;;;;2.5;2;;;;;;;9.82;82.94043;95774.73;;;;
2024/02/15 01:48:10;;;;;;;2.5;2;;;;;;;9.82;82.94043;95774.73;;;;
2024/02/15 01:49:11;;;;;;;2.5;2;;;;;;;9.82;82.94043;95774.73;;;;
2024/02/15 01:50:12;;;;;;;2.5;2;;;;;;;9.82;82.94043;95774.73;;;;
2024/02/15 01:51:13;;;;;;;2.5;2;;;;;;;9.82;82.94043;95774.73;;;;
2024/02/15 01:52:15;;;;;;;2.5;2;;;;;;;9.82;82.94043;95774.73;;;;
2024/02/15 01:53:17;;;;;;;2.5;2;;;;;;;9.82;82.94043;95774.73;;;;
2024/02/15 01:54:18;;;;;;;2.5;2;;;;;;;9.82;82.94043;95774.73;;;;
2024/02/15 01:55:19;;;;;;;2.5;2;;;;;;;9.82;82.94043;95774.73;;;;
2024/02/15 01:56:21;;;;;;;2.5;2;;;;;;;9.82;82.94043;95774.73;;;;
2024/02/15 01:57:22;;;;;;;3.2;2.25;;;;;;;9.78;83.59668;95762.5;;;;
2024/02/15 01:58:23;;;;;;;3.2;2.25;;;;;;;9.78;83.59668;95762.5;;;;
2024/02/15 01:59:25;;;;;;;3.2;2.25;;;;;;;9.78;83.59668;95762.5;;;;
2024/02/15 02:00:26;;;;;;;3.2;2.25;;;;;;;9.78;83.59668;95762.5;;;;
2024/02/15 02:01:27;;;;;;;3.2;2.25;;;;;;;9.78;83.59668;95762.5;;;;
2024/02/15 02:02:30;;;;;;;3.2;2.25;;;;;;;9.78;83.59668;95762.5;;;;
2024/02/15 02:03:34;;;;;;;3.2;2.25;;;;;;;9.78;83.59668;95762.5;;;;
2024/02/15 02:04:35;;;;;;;3.2;2.25;;;;;;;9.78;83.59668;95762.5;;;;
2024/02/15 02:05:37;;;;;;;3.2;2.25;;;;;;;9.78;83.59668;95762.5;;;;
2024/02/15 02:06:38;;;;;;;3.2;2.25;;;;;;;9.78;83.59668;95762.5;;;;
2024/02/15 02:07:38;;;;;;;3.2;2.25;;;;;;;9.78;83.59668;95762.5;;;;
2024/02/15 02:08:39;;;;;;;2.3;2.1;;;;;;;9.88;84.32422;95763.37;;;;
2024/02/15 02:09:40;;;;;;;2.3;2.1;;;;;;;9.88;84.32422;95763.37;;;;
2024/02/15 02:10:40;;;;;;;2.3;2.1;;;;;;;9.88;84.32422;95763.37;;;;
2024/02/15 02:11:41;;;;;;;2.3;2.1;;;;;;;9.88;84.32422;95763.37;;;;
2024/02/15 02:12:44;;;;;;;2.3;2.1;;;;;;;9.88;84.32422;95763.37;;;;
2024/02/15 02:13:45;;;;;;;2.3;2.1;;;;;;;9.88;84.32422;95763.37;;;;
2024/02/15 02:14:45;;;;;;;2.3;2.1;;;;;;;9.88;84.32422;95763.37;;;;
2024/02/15 02:15:46;;;;;;;2.3;2.1;;;;;;;9.88;84.32422;95763.37;;;;
2024/02/15 02:16:46;;;;;;;2.3;2.1;;;;;;;9.88;84.32422;95763.37;;;;
2024/02/15 02:17:48;;;;;;;2.3;2.1;;;;;;;9.88;84.32422;95763.37;;;;
2024/02/15 02:18:50;;;;;;;2.4;2.2;;;;;;;9.99;84.51465;95755.31;;;;
2024/02/15 02:19:50;;;;;;;2.4;2.2;;;;;;;9.99;84.51465;95755.31;;;;
2024/02/15 02:20:51;;;;;;;2.4;2.2;;;;;;;9.99;84.51465;95755.31;;;;
2024/02/15 02:21:51;;;;;;;2.4;2.2;;;;;;;9.99;84.51465;95755.31;;;;
2024/02/15 02:22:51;;;;;;;2.4;2.2;;;;;;;9.99;84.51465;95755.31;;;;
2024/02/15 02:23:54;;;;;;;2.4;2.2;;;;;;;9.99;84.51465;95755.31;;;;
2024/02/15 02:24:58;;;;;;;2.4;2.2;;;;;;;9.99;84.51465;95755.31;;;;
2024/02/15 02:26:01;;;;;;;2.4;2.2;;;;;;;9.99;84.51465;95755.31;;;;
2024/02/15 02:27:02;;;;;;;2.4;2.2;;;;;;;9.99;84.51465;95755.31;;;;
2024/02/15 02:28:03;;;;;;;2.4;2.2;;;;;;;9.99;84.51465;95755.31;;;;
2024/02/15 02:29:04;;;;;;;2.4;2.2;;;;;;;9.99;84.51465;95755.31;;;;
2024/02/15 02:30:06;;;;;;;2.5;2.1;;;;;;;10.1;84.68652;95755.27;;;;
2024/02/15 02:31:13;;;;;;;2.5;2.1;;;;;;;10.1;84.68652;95755.27;;;;
2024/02/15 02:32:14;;;;;;;2.5;2.1;;;;;;;10.1;84.68652;95755.27;;;;
2024/02/15 02:33:18;;;;;;;2.5;2.1;;;;;;;10.1;84.68652;95755.27;;;;
2024/02/15 02:34:19;;;;;;;2.5;2.1;;;;;;;10.1;84.68652;95755.27;;;;
2024/02/15 02:35:20;;;;;;;2.5;2.1;;;;;;;10.1;84.68652;95755.27;;;;
2024/02/15 02:36:21;;;;;;;2.5;2.1;;;;;;;10.1;84.68652;95755.27;;;;
2024/02/15 02:37:21;;;;;;;2.5;2.1;;;;;;;10.1;84.68652;95755.27;;;;
2024/02/15 02:38:22;;;;;;;2.5;2.1;;;;;;;10.1;84.68652;95755.27;;;;
2024/02/15 02:39:22;;;;;;;2.5;2.1;;;;;;;10.1;84.68652;95755.27;;;;
2024/02/15 02:40:23;;;;;;;2.2;2;;;;;;;10.21;84.75293;95743.63;;;;
2024/02/15 02:41:23;;;;;;;2.2;2;;;;;;;10.21;84.75293;95743.63;;;;
2024/02/15 02:42:24;;;;;;;2.2;2;;;;;;;10.21;84.75293;95743.63;;;;
2024/02/15 02:43:24;;;;;;;2.2;2;;;;;;;10.21;84.75293;95743.63;;;;
2024/02/15 02:44:25;;;;;;;2.2;2;;;;;;;10.21;84.75293;95743.63;;;;
2024/02/15 02:45:26;;;;;;;2.2;2;;;;;;;10.21;84.75293;95743.63;;;;
2024/02/15 02:46:26;;;;;;;2.2;2;;;;;;;10.21;84.75293;95743.63;;;;
2024/02/15 02:47:27;;;;;;;2.2;2;;;;;;;10.21;84.75293;95743.63;;;;
2024/02/15 02:48:27;;;;;;;2.2;2;;;;;;;10.21;84.75293;95743.63;;;;
2024/02/15 02:49:27;;;;;;;2.2;2;;;;;;;10.21;84.75293;95743.63;;;;
2024/02/15 02:50:28;;;;;;;2.2;2;;;;;;;10.21;84.75293;95743.63;;;;
2024/02/15 02:51:28;;;;;;;2.2;2;;;;;;;10.21;84.75293;95743.63;;;;
2024/02/15 02:52:29;;;;;;;2.2;2;;;;;;;10.21;84.75293;95743.63;;;;
2024/02/15 02:53:29;;;;;;;2.2;2;;;;;;;10.21;84.75293;95743.63;;;;
2024/02/15 02:54:30;;;;;;;2.2;2;;;;;;;10.21;84.75293;95743.63;;;;
2024/02/15 02:55:30;;;;;;;2.2;2;;;;;;;10.21;84.75293;95743.63;;;;
2024/02/15 02:56:31;;;;;;;2.2;2;;;;;;;10.21;84.75293;95743.63;;;;
2024/02/15 02:57:32;;;;;;;2.2;2;;;;;;;10.21;84.75293;95743.63;;;;
2024/02/15 02:58:33;;;;;;;2.2;2;;;;;;;10.21;84.75293;95743.63;;;;
2024/02/15 02:59:33;;;;;;;2.2;2;;;;;;;10.21;84.75293;95743.63;;;;
2024/02/15 03:00:34;;;;;;;2.2;2;;;;;;;10.21;84.75293;95743.63;;;;
2024/02/15 03:01:35;;;;;;;2.8;2.05;;;;;;;10.54;83.93555;95736.33;;;;
2024/02/15 03:02:35;;;;;;;2.8;2.05;;;;;;;10.54;83.93555;95736.33;;;;
2024/02/15 03:03:36;;;;;;;2.8;2.05;;;;;;;10.54;83.93555;95736.33;;;;
2024/02/15 03:04:38;;;;;;;2.8;2.05;;;;;;;10.54;83.93555;95736.33;;;;
2024/02/15 03:05:40;;;;;;;2.8;2.05;;;;;;;10.54;83.93555;95736.33;;;;
2024/02/15 03:06:42;;;;;;;2.8;2.05;;;;;;;10.54;83.93555;95736.33;;;;
2024/02/15 03:07:42;;;;;;;2.8;2.05;;;;;;;10.54;83.93555;95736.33;;;;
2024/02/15 03:08:44;;;;;;;2.8;2.05;;;;;;;10.54;83.93555;95736.33;;;;
2024/02/15 03:09:44;;;;;;;2.8;2.05;;;;;;;10.54;83.93555;95736.33;;;;
2024/02/15 03:10:45;;;;;;;2.8;2.05;;;;;;;10.54;83.93555;95736.33;;;;
2024/02/15 03:11:45;;;;;;;2.8;2.05;;;;;;;10.54;83.93555;95736.33;;;;
2024/02/15 03:12:46;;;;;;;3.15;2.3;;;;;;;10.46;83.93164;95736.8;;;;
2024/02/15 03:13:48;;;;;;;3.15;2.3;;;;;;;10.46;83.93164;95736.8;;;;
2024/02/15 03:14:48;;;;;;;3.15;2.3;;;;;;;10.46;83.93164;95736.8;;;;
2024/02/15 03:15:49;;;;;;;3.15;2.3;;;;;;;10.46;83.93164;95736.8;;;;
2024/02/15 03:16:49;;;;;;;3.15;2.3;;;;;;;10.46;83.93164;95736.8;;;;
2024/02/15 03:17:51;;;;;;;3.15;2.3;;;;;;;10.46;83.93164;95736.8;;;;
2024/02/15 03:18:52;;;;;;;3.15;2.3;;;;;;;10.46;83.93164;95736.8;;;;
2024/02/15 03:19:52;;;;;;;3.15;2.3;;;;;;;10.46;83.93164;95736.8;;;;
2024/02/15 03:20:53;;;;;;;3.15;2.3;;;;;;;10.46;83.93164;95736.8;;;;
2024/02/15 03:21:53;;;;;;;3.15;2.3;;;;;;;10.46;83.93164;95736.8;;;;
2024/02/15 03:22:54;;;;;;;2.35;1.9;;;;;;;10.4;83.94043;95741.58;;;;
2024/02/15 03:23:55;;;;;;;2.35;1.9;;;;;;;10.4;83.94043;95741.58;;;;
2024/02/15 03:24:56;;;;;;;2.35;1.9;;;;;;;10.4;83.94043;95741.58;;;;
2024/02/15 03:25:56;;;;;;;2.35;1.9;;;;;;;10.4;83.94043;95741.58;;;;
2024/02/15 03:26:57;;;;;;;2.35;1.9;;;;;;;10.4;83.94043;95741.58;;;;
2024/02/15 03:27:58;;;;;;;2.35;1.9;;;;;;;10.4;83.94043;95741.58;;;;
2024/02/15 03:28:59;;;;;;;2.35;1.9;;;;;;;10.4;83.94043;95741.58;;;;
2024/02/15 03:30:00;;;;;;;2.35;1.9;;;;;;;10.4;83.94043;95741.58;;;;
2024/02/15 03:31:01;;;;;;;2.35;1.9;;;;;;;10.4;83.94043;95741.58;;;;
2024/02/15 03:32:03;;;;;;;2.35;1.9;;;;;;;10.4;83.94043;95741.58;;;;
2024/02/15 03:33:05;;;;;;;2.35;1.9;;;;;;;10.4;83.94043;95741.58;;;;
2024/02/15 03:34:05;;;;;;;3.5;2.2;;;;;;;10.3;84.48047;95742.05;;;;
2024/02/15 03:35:06;;;;;;;3.5;2.2;;;;;;;10.3;84.48047;95742.05;;;;
2024/02/15 03:36:10;;;;;;;3.5;2.2;;;;;;;10.3;84.48047;95742.05;;;;
2024/02/15 03:37:10;;;;;;;3.5;2.2;;;;;;;10.3;84.48047;95742.05;;;;
2024/02/15 03:38:12;;;;;;;3.5;2.2;;;;;;;10.3;84.48047;95742.05;;;;
2024/02/15 03:39:12;;;;;;;3.5;2.2;;;;;;;10.3;84.48047;95742.05;;;;
2024/02/15 03:40:14;;;;;;;3.5;2.2;;;;;;;10.3;84.48047;95742.05;;;;
2024/02/15 03:41:15;;;;;;;3.5;2.2;;;;;;;10.3;84.48047;95742.05;;;;
2024/02/15 03:42:15;;;;;;;3.5;2.2;;;;;;;10.3;84.48047;95742.05;;;;
2024/02/15 03:43:16;;;;;;;3.5;2.2;;;;;;;10.3;84.48047;95742.05;;;;
2024/02/15 03:44:18;;;;;;;2.65;2;;;;;;;10.28;84.36719;95737.98;;;;
2024/02/15 03:45:18;;;;;;;2.65;2;;;;;;;10.28;84.36719;95737.98;;;;
2024/02/15 03:46:19;;;;;;;2.65;2;;;;;;;10.28;84.36719;95737.98;;;;
2024/02/15 03:47:19;;;;;;;2.65;2;;;;;;;10.28;84.36719;95737.98;;;;
2024/02/15 03:48:20;;;;;;;2.65;2;;;;;;;10.28;84.36719;95737.98;;;;
2024/02/15 03:49:21;;;;;;;2.65;2;;;;;;;10.28;84.36719;95737.98;;;;
2024/02/15 03:50:21;;;;;;;2.65;2;;;;;;;10.28;84.36719;95737.98;;;;
2024/02/15 03:51:24;;;;;;;2.65;2;;;;;;;10.28;84.36719;95737.98;;;;
2024/02/15 03:52:24;;;;;;;2.65;2;;;;;;;10.28;84.36719;95737.98;;;;
2024/02/15 03:53:26;;;;;;;2.65;2;;;;;;;10.28;84.36719;95737.98;;;;
2024/02/15 03:54:26;;;;;;;2.65;2;;;;;;;10.28;84.36719;95737.98;;;;
2024/02/15 03:55:26;;;;;;;2.45;2;;;;;;;10.17;84.19727;95746.37;;;;
2024/02/15 03:56:28;;;;;;;2.45;2;;;;;;;10.17;84.19727;95746.37;;;;
2024/02/15 03:57:28;;;;;;;2.45;2;;;;;;;10.17;84.19727;95746.37;;;;
2024/02/15 03:58:32;;;;;;;2.45;2;;;;;;;10.17;84.19727;95746.37;;;;
2024/02/15 03:59:34;;;;;;;2.45;2;;;;;;;10.17;84.19727;95746.37;;;;
2024/02/15 04:00:35;;;;;;;2.45;2;;;;;;;10.17;84.19727;95746.37;;;;
2024/02/15 04:01:36;;;;;;;2.45;2;;;;;;;10.17;84.19727;95746.37;;;;
2024/02/15 04:02:36;;;;;;;2.45;2;;;;;;;10.17;84.19727;95746.37;;;;
2024/02/15 04:03:37;;;;;;;2.45;2;;;;;;;10.17;84.19727;95746.37;;;;
2024/02/15 04:04:41;;;;;;;2.45;2;;;;;;;10.17;84.19727;95746.37;;;;
2024/02/15 04:05:42;;;;;;;2.6;2.1;;;;;;;10.07;83.94238;95753.81;;;;
2024/02/15 04:06:42;;;;;;;2.6;2.1;;;;;;;10.07;83.94238;95753.81;;;;
2024/02/15 04:07:43;;;;;;;2.6;2.1;;;;;;;10.07;83.94238;95753.81;;;;
2024/02/15 04:08:44;;;;;;;2.6;2.1;;;;;;;10.07;83.94238;95753.81;;;;
2024/02/15 04:09:45;;;;;;;2.6;2.1;;;;;;;10.07;83.94238;95753.81;;;;
2024/02/15 04:10:45;;;;;;;2.6;2.1;;;;;;;10.07;83.94238;95753.81;;;;
2024/02/15 04:11:49;;;;;;;2.6;2.1;;;;;;;10.07;83.94238;95753.81;;;;
2024/02/15 04:12:50;;;;;;;2.6;2.1;;;;;;;10.07;83.94238;95753.81;;;;
2024/02/15 04:13:50;;;;;;;2.6;2.1;;;;;;;10.07;83.94238;95753.81;;;;
2024/02/15 04:14:51;;;;;;;2.6;2.1;;;;;;;10.07;83.94238;95753.81;;;;
2024/02/15 04:15:53;;;;;;;2.6;2.1;;;;;;;10.07;83.94238;95753.81;;;;
2024/02/15 04:16:53;;;;;;;2.5;2.3;;;;;;;9.76;82.93848;95745.12;;;;
2024/02/15 04:17:56;;;;;;;2.5;2.3;;;;;;;9.76;82.93848;95745.12;;;;
2024/02/15 04:18:57;;;;;;;2.5;2.3;;;;;;;9.76;82.93848;95745.12;;;;
2024/02/15 04:19:57;;;;;;;2.5;2.3;;;;;;;9.76;82.93848;95745.12;;;;
2024/02/15 04:20:59;;;;;;;2.5;2.3;;;;;;;9.76;82.93848;95745.12;;;;
2024/02/15 04:22:00;;;;;;;2.5;2.3;;;;;;;9.76;82.93848;95745.12;;;;
2024/02/15 04:23:00;;;;;;;2.5;2.3;;;;;;;9.76;82.93848;95745.12;;;;
2024/02/15 04:24:01;;;;;;;2.5;2.3;;;;;;;9.76;82.93848;95745.12;;;;
2024/02/15 04:25:01;;;;;;;2.5;2.3;;;;;;;9.76;82.93848;95745.12;;;;
2024/02/15 04:26:03;;;;;;;2.5;2.3;;;;;;;9.76;82.93848;95745.12;;;;
2024/02/15 04:27:03;;;;;;;2.5;2.3;;;;;;;9.76;82.93848;95745.12;;;;
2024/02/15 04:28:04;;;;;;;2.5;2.3;;;;;;;9.76;82.93848;95745.12;;;;
2024/02/15 04:29:05;;;;;;;2.5;2.3;;;;;;;9.76;82.93848;95745.12;;;;
2024/02/15 04:30:09;;;;;;;2.5;2.3;;;;;;;9.76;82.93848;95745.12;;;;
2024/02/15 04:31:12;;;;;;;2.5;2.3;;;;;;;9.76;82.93848;95745.12;;;;
2024/02/15 04:32:13;;;;;;;2.5;2.3;;;;;;;9.76;82.93848;95745.12;;;;
2024/02/15 04:33:15;;;;;;;2.5;2.3;;;;;;;9.76;82.93848;95745.12;;;;
2024/02/15 04:34:16;;;;;;;2.5;2.3;;;;;;;9.76;82.93848;95745.12;;;;
2024/02/15 04:35:17;;;;;;;2.5;2.3;;;;;;;9.76;82.93848;95745.12;;;;
2024/02/15 04:36:23;;;;;;;2.5;2.3;;;;;;;9.76;82.93848;95745.12;;;;
2024/02/15 04:37:23;;;;;;;2.5;2.3;;;;;;;9.76;82.93848;95745.12;;;;
2024/02/15 04:38:25;;;;;;;2.4;2.2;;;;;;;8.99;81.7998;95764.62;;;;
2024/02/15 04:39:29;;;;;;;2.4;2.2;;;;;;;8.99;81.7998;95764.62;;;;
2024/02/15 04:40:30;;;;;;;2.4;2.2;;;;;;;8.99;81.7998;95764.62;;;;
2024/02/15 04:41:30;;;;;;;2.4;2.2;;;;;;;8.99;81.7998;95764.62;;;;
2024/02/15 04:42:32;;;;;;;2.4;2.2;;;;;;;8.99;81.7998;95764.62;;;;
2024/02/15 04:43:33;;;;;;;2.4;2.2;;;;;;;8.99;81.7998;95764.62;;;;
2024/02/15 04:44:35;;;;;;;2.4;2.2;;;;;;;8.99;81.7998;95764.62;;;;
2024/02/15 04:45:35;;;;;;;2.4;2.2;;;;;;;8.99;81.7998;95764.62;;;;
2024/02/15 04:46:36;;;;;;;2.4;2.2;;;;;;;8.99;81.7998;95764.62;;;;
2024/02/15 04:47:36;;;;;;;2.4;2.2;;;;;;;8.99;81.7998;95764.62;;;;
2024/02/15 04:48:37;;;;;;;2.4;2;;;;;;;8.63;81.23926;95757.36;;;;
2024/02/15 04:49:38;;;;;;;2.4;2;;;;;;;8.63;81.23926;95757.36;;;;
2024/02/15 04:50:39;;;;;;;2.4;2;;;;;;;8.63;81.23926;95757.36;;;;
2024/02/15 04:51:40;;;;;;;2.4;2;;;;;;;8.63;81.23926;95757.36;;;;
2024/02/15 04:52:45;;;;;;;2.4;2;;;;;;;8.63;81.23926;95757.36;;;;
2024/02/15 04:53:46;;;;;;;2.4;2;;;;;;;8.63;81.23926;95757.36;;;;
2024/02/15 04:54:48;;;;;;;2.4;2;;;;;;;8.63;81.23926;95757.36;;;;
2024/02/15 04:55:48;;;;;;;2.4;2;;;;;;;8.63;81.23926;95757.36;;;;
2024/02/15 04:56:52;;;;;;;2.4;2;;;;;;;8.63;81.23926;95757.36;;;;
2024/02/15 04:57:54;;;;;;;2.4;2;;;;;;;8.63;81.23926;95757.36;;;;
2024/02/15 04:58:56;;;;;;;2.4;2;;;;;;;8.63;81.23926;95757.36;;;;
2024/02/15 04:59:58;;;;;;;4.2;2.25;;;;;;;8.23;80.66406;95766.16;;;;
2024/02/15 05:00:59;;;;;;;4.2;2.25;;;;;;;8.23;80.66406;95766.16;;;;
2024/02/15 05:02:00;;;;;;;4.2;2.25;;;;;;;8.23;80.66406;95766.16;;;;
2024/02/15 05:03:00;;;;;;;4.2;2.25;;;;;;;8.23;80.66406;95766.16;;;;
2024/02/15 05:04:03;;;;;;;4.2;2.25;;;;;;;8.23;80.66406;95766.16;;;;
2024/02/15 05:05:05;;;;;;;4.2;2.25;;;;;;;8.23;80.66406;95766.16;;;;
2024/02/15 05:06:08;;;;;;;4.2;2.25;;;;;;;8.23;80.66406;95766.16;;;;
2024/02/15 05:07:08;;;;;;;4.2;2.25;;;;;;;8.23;80.66406;95766.16;;;;
2024/02/15 05:08:09;;;;;;;4.2;2.25;;;;;;;8.23;80.66406;95766.16;;;;
2024/02/15 05:09:10;;;;;;;4.2;2.25;;;;;;;8.23;80.66406;95766.16;;;;
2024/02/15 05:10:10;;;;;;;2.55;2.1;;;;;;;7.95;80.41992;95765.7;;;;
2024/02/15 05:11:15;;;;;;;2.55;2.1;;;;;;;7.95;80.41992;95765.7;;;;
2024/02/15 05:12:15;;;;;;;2.55;2.1;;;;;;;7.95;80.41992;95765.7;;;;
2024/02/15 05:13:22;;;;;;;2.55;2.1;;;;;;;7.95;80.41992;95765.7;;;;
2024/02/15 05:14:24;;;;;;;2.55;2.1;;;;;;;7.95;80.41992;95765.7;;;;
2024/02/15 05:15:25;;;;;;;2.55;2.1;;;;;;;7.95;80.41992;95765.7;;;;
2024/02/15 05:16:26;;;;;;;2.55;2.1;;;;;;;7.95;80.41992;95765.7;;;;
2024/02/15 05:17:28;;;;;;;2.55;2.1;;;;;;;7.95;80.41992;95765.7;;;;
2024/02/15 05:18:30;;;;;;;2.55;2.1;;;;;;;7.95;80.41992;95765.7;;;;
2024/02/15 05:19:30;;;;;;;2.55;2.1;;;;;;;7.95;80.41992;95765.7;;;;
2024/02/15 05:20:31;;;;;;;2.55;2.1;;;;;;;7.95;80.41992;95765.7;;;;
2024/02/15 05:21:33;;;;;;;2.1;1.9;;;;;;;7.63;80.1582;95758.09;;;;
2024/02/15 05:22:33;;;;;;;2.1;1.9;;;;;;;7.63;80.1582;95758.09;;;;
2024/02/15 05:23:34;;;;;;;2.1;1.9;;;;;;;7.63;80.1582;95758.09;;;;
2024/02/15 05:24:35;;;;;;;2.1;1.9;;;;;;;7.63;80.1582;95758.09;;;;
2024/02/15 05:25:36;;;;;;;2.1;1.9;;;;;;;7.63;80.1582;95758.09;;;;
2024/02/15 05:26:36;;;;;;;2.1;1.9;;;;;;;7.63;80.1582;95758.09;;;;
2024/02/15 05:27:37;;;;;;;2.1;1.9;;;;;;;7.63;80.1582;95758.09;;;;
2024/02/15 05:28:37;;;;;;;2.1;1.9;;;;;;;7.63;80.1582;95758.09;;;;
2024/02/15 05:29:39;;;;;;;2.1;1.9;;;;;;;7.63;80.1582;95758.09;;;;
2024/02/15 05:30:39;;;;;;;2.1;1.9;;;;;;;7.63;80.1582;95758.09;;;;
2024/02/15 05:31:40;;;;;;;2.2;2;;;;;;;7.4;80.08496;95747.77;;;;
2024/02/15 05:32:42;;;;;;;2.2;2;;;;;;;7.4;80.08496;95747.77;;;;
2024/02/15 05:33:43;;;;;;;2.2;2;;;;;;;7.4;80.08496;95747.77;;;;
2024/02/15 05:34:44;;;;;;;2.2;2;;;;;;;7.4;80.08496;95747.77;;;;
2024/02/15 05:35:49;;;;;;;2.2;2;;;;;;;7.4;80.08496;95747.77;;;;
2024/02/15 05:36:51;;;;;;;2.2;2;;;;;;;7.4;80.08496;95747.77;;;;
2024/02/15 05:37:52;;;;;;;2.2;2;;;;;;;7.4;80.08496;95747.77;;;;
2024/02/15 05:38:52;;;;;;;2.2;2;;;;;;;7.4;80.08496;95747.77;;;;
2024/02/15 05:39:55;;;;;;;2.2;2;;;;;;;7.4;80.08496;95747.77;;;;
2024/02/15 05:40:56;;;;;;;2.2;2;;;;;;;7.4;80.08496;95747.77;;;;
2024/02/15 05:42:00;;;;;;;2.2;2;;;;;;;7.4;80.08496;95747.77;;;;
2024/02/15 05:43:01;;;;;;;2.9;1.9;;;;;;;7.18;80.1709;95751.68;;;;
2024/02/15 05:44:06;;;;;;;2.9;1.9;;;;;;;7.18;80.1709;95751.68;;;;
2024/02/15 05:45:06;;;;;;;2.9;1.9;;;;;;;7.18;80.1709;95751.68;;;;
2024/02/15 05:46:29;;;;;;;2.9;1.9;;;;;;;7.18;80.1709;95751.68;;;;
2024/02/15 05:47:29;;;;;;;2.9;1.9;;;;;;;7.18;80.1709;95751.68;;;;
2024/02/15 05:48:30;;;;;;;2.9;1.9;;;;;;;7.18;80.1709;95751.68;;;;
2024/02/15 05:49:30;;;;;;;2.9;1.9;;;;;;;7.18;80.1709;95751.68;;;;
2024/02/15 05:50:31;;;;;;;2.9;1.9;;;;;;;7.18;80.1709;95751.68;;;;
2024/02/15 05:51:33;;;;;;;2.9;1.9;;;;;;;7.18;80.1709;95751.68;;;;
2024/02/15 05:52:34;;;;;;;2.9;1.9;;;;;;;7.18;80.1709;95751.68;;;;
2024/02/15 05:53:35;;;;;;;2.3;2.1;;;;;;;6.97;80.32324;95750.76;;;;
2024/02/15 05:54:36;;;;;;;2.3;2.1;;;;;;;6.97;80.32324;95750.76;;;;
2024/02/15 05:55:37;;;;;;;2.3;2.1;;;;;;;6.97;80.32324;95750.76;;;;
2024/02/15 05:56:39;;;;;;;2.3;2.1;;;;;;;6.97;80.32324;95750.76;;;;
2024/02/15 05:57:39;;;;;;;2.3;2.1;;;;;;;6.97;80.32324;95750.76;;;;
2024/02/15 05:58:39;;;;;;;2.3;2.1;;;;;;;6.97;80.32324;95750.76;;;;